createdAt,value
2018-05-26T00:01:40.475Z,14.80
2018-05-26T00:04:13.869Z,14.80
2018-05-26T00:06:46.589Z,14.70
2018-05-26T00:09:19.001Z,14.70
2018-05-26T00:11:51.462Z,14.70
2018-05-26T00:14:24.774Z,14.70
2018-05-26T00:16:57.450Z,14.70
2018-05-26T00:19:30.590Z,14.60
2018-05-26T00:22:04.188Z,14.60
2018-05-26T00:24:37.898Z,14.60
2018-05-26T00:27:10.442Z,14.60
2018-05-26T00:29:42.980Z,14.60
2018-05-26T00:32:16.153Z,14.60
2018-05-26T00:34:48.917Z,14.50
2018-05-26T00:37:22.262Z,14.50
2018-05-26T00:39:55.776Z,14.50
2018-05-26T00:42:28.509Z,14.50
2018-05-26T00:45:01.918Z,14.40
2018-05-26T00:47:34.573Z,14.40
2018-05-26T00:50:07.853Z,14.30
2018-05-26T00:52:41.263Z,14.40
2018-05-26T00:55:14.583Z,14.30
2018-05-26T00:57:47.426Z,14.30
2018-05-26T01:00:20.411Z,14.30
2018-05-26T01:02:53.928Z,14.30
2018-05-26T01:05:27.439Z,14.30
2018-05-26T01:08:01.144Z,14.30
2018-05-26T01:10:34.563Z,14.20
2018-05-26T01:13:07.760Z,14.20
2018-05-26T01:15:42.061Z,14.20
2018-05-26T01:18:14.465Z,14.20
2018-05-26T01:20:47.082Z,14.20
2018-05-26T01:23:20.290Z,14.20
2018-05-26T01:25:53.301Z,14.20
2018-05-26T01:28:27.451Z,14.10
2018-05-26T01:31:00.565Z,14.10
2018-05-26T01:33:34.721Z,14.10
2018-05-26T01:36:08.239Z,14.10
2018-05-26T01:38:41.819Z,14.10
2018-05-26T01:41:14.778Z,14.00
2018-05-26T01:43:48.198Z,14.10
2018-05-26T01:46:20.614Z,14.00
2018-05-26T01:48:53.336Z,14.00
2018-05-26T01:51:25.939Z,14.00
2018-05-26T01:53:59.123Z,14.00
2018-05-26T01:56:31.839Z,14.00
2018-05-26T01:59:04.408Z,14.00
2018-05-26T02:01:37.950Z,14.00
2018-05-26T02:04:10.611Z,13.90
2018-05-26T02:06:44.599Z,13.90
2018-05-26T02:09:17.725Z,13.90
2018-05-26T02:11:51.180Z,13.90
2018-05-26T02:14:24.349Z,13.90
2018-05-26T02:16:59.203Z,13.90
2018-05-26T02:19:32.511Z,13.90
2018-05-26T02:22:05.383Z,13.90
2018-05-26T02:24:38.539Z,13.80
2018-05-26T02:27:11.374Z,13.80
2018-05-26T02:29:43.956Z,13.80
2018-05-26T02:32:26.755Z,13.80
2018-05-26T02:35:00.157Z,13.80
2018-05-26T02:37:33.318Z,13.70
2018-05-26T02:40:06.561Z,13.70
2018-05-26T02:42:39.648Z,13.70
2018-05-26T02:45:12.266Z,13.70
2018-05-26T02:47:45.624Z,13.70
2018-05-26T02:50:18.615Z,13.60
2018-05-26T02:52:51.957Z,13.70
2018-05-26T02:55:25.482Z,13.60
2018-05-26T02:57:57.909Z,13.60
2018-05-26T03:00:31.405Z,13.60
2018-05-26T03:03:03.868Z,13.60
2018-05-26T03:05:42.569Z,13.60
2018-05-26T03:08:21.359Z,13.60
2018-05-26T03:10:59.953Z,13.50
2018-05-26T03:13:39.488Z,13.50
2018-05-26T03:16:15.206Z,13.40
2018-05-26T03:18:49.575Z,13.50
2018-05-26T03:21:22.449Z,13.40
2018-05-26T03:23:54.819Z,13.40
2018-05-26T03:26:28.689Z,13.40
2018-05-26T03:29:02.893Z,13.40
2018-05-26T03:31:37.445Z,13.40
2018-05-26T03:34:09.847Z,13.40
2018-05-26T03:36:42.264Z,13.40
2018-05-26T03:39:14.819Z,13.40
2018-05-26T03:41:47.544Z,13.40
2018-05-26T03:44:21.559Z,13.40
2018-05-26T03:46:54.568Z,13.30
2018-05-26T03:49:27.884Z,13.30
2018-05-26T03:52:00.892Z,13.40
2018-05-26T03:54:52.116Z,13.40
2018-05-26T03:57:44.211Z,13.40
2018-05-26T04:00:17.126Z,13.40
2018-05-26T04:02:49.758Z,13.40
2018-05-26T04:05:23.345Z,13.40
2018-05-26T04:07:56.279Z,13.50
2018-05-26T04:10:29.543Z,13.50
2018-05-26T04:13:03.325Z,13.50
2018-05-26T04:15:37.093Z,13.50
2018-05-26T04:18:09.643Z,13.50
2018-05-26T04:20:43.715Z,13.60
2018-05-26T04:23:17.508Z,13.60
2018-05-26T04:25:50.041Z,13.60
2018-05-26T04:28:23.429Z,13.60
2018-05-26T04:30:57.371Z,13.90
2018-05-26T04:33:30.413Z,13.80
2018-05-26T04:36:03.805Z,14.00
2018-05-26T04:38:36.607Z,14.10
2018-05-26T04:41:10.002Z,14.20
2018-05-26T04:43:42.578Z,14.30
2018-05-26T04:46:15.891Z,14.40
2018-05-26T04:48:48.672Z,14.50
2018-05-26T04:51:21.780Z,14.60
2018-05-26T04:53:54.914Z,14.90
2018-05-26T04:56:27.809Z,14.90
2018-05-26T04:59:00.447Z,15.00
2018-05-26T05:01:32.920Z,15.10
2018-05-26T05:04:05.535Z,15.20
2018-05-26T05:06:38.573Z,15.30
2018-05-26T05:09:11.308Z,15.50
2018-05-26T05:11:44.283Z,15.60
2018-05-26T05:14:17.174Z,15.80
2018-05-26T05:16:49.778Z,16.10
2018-05-26T05:19:22.781Z,16.30
2018-05-26T05:21:55.443Z,16.50
2018-05-26T05:24:28.327Z,16.80
2018-05-26T05:27:00.914Z,17.10
2018-05-26T05:29:33.831Z,17.50
2018-05-26T05:32:06.719Z,18.30
2018-05-26T05:34:39.456Z,19.50
2018-05-26T05:37:12.646Z,21.70
2018-05-26T05:39:45.959Z,21.60
2018-05-26T05:42:19.273Z,22.70
2018-05-26T05:44:52.534Z,23.60
2018-05-26T05:47:25.798Z,25.10
2018-05-26T05:50:00.058Z,25.60
2018-05-26T05:52:33.215Z,25.60
2018-05-26T05:55:06.363Z,25.80
2018-05-26T05:57:38.918Z,26.00
2018-05-26T06:00:11.503Z,26.40
2018-05-26T06:02:45.491Z,26.20
2018-05-26T06:05:19.328Z,26.50
2018-05-26T06:07:51.804Z,26.50
2018-05-26T06:10:24.994Z,27.00
2018-05-26T06:12:57.681Z,26.90
2018-05-26T06:15:30.157Z,27.20
2018-05-26T06:18:03.283Z,27.30
2018-05-26T06:20:35.955Z,27.50
2018-05-26T06:23:09.054Z,27.20
2018-05-26T06:25:42.205Z,27.20
2018-05-26T06:28:16.125Z,27.30
2018-05-26T06:30:48.802Z,27.30
2018-05-26T06:33:21.294Z,27.50
2018-05-26T06:35:53.910Z,27.80
2018-05-26T06:38:26.428Z,27.90
2018-05-26T06:40:59.070Z,27.80
2018-05-26T06:43:32.957Z,27.50
2018-05-26T06:46:05.763Z,27.30
2018-05-26T06:48:38.258Z,27.20
2018-05-26T06:51:12.594Z,27.30
2018-05-26T06:53:45.466Z,27.30
2018-05-26T06:56:18.836Z,27.40
2018-05-26T06:58:51.690Z,27.60
2018-05-26T07:01:25.777Z,27.50
2018-05-26T07:03:59.445Z,27.50
2018-05-26T07:06:33.477Z,27.60
2018-05-26T07:09:06.346Z,27.50
2018-05-26T07:11:39.156Z,27.70
2018-05-26T07:14:12.399Z,28.00
2018-05-26T07:16:45.989Z,28.00
2018-05-26T07:19:19.369Z,28.00
2018-05-26T07:21:52.657Z,27.80
2018-05-26T07:24:25.679Z,27.70
2018-05-26T07:26:59.021Z,27.80
2018-05-26T07:29:32.138Z,27.80
2018-05-26T07:32:05.429Z,27.20
2018-05-26T07:34:38.216Z,27.20
2018-05-26T07:37:10.886Z,27.20
2018-05-26T07:39:44.184Z,27.40
2018-05-26T07:42:17.297Z,27.60
2018-05-26T07:44:51.027Z,27.40
2018-05-26T07:47:24.062Z,27.40
2018-05-26T07:49:57.138Z,27.50
2018-05-26T07:52:29.754Z,27.60
2018-05-26T07:55:02.886Z,27.60
2018-05-26T07:57:35.727Z,27.50
2018-05-26T08:00:08.535Z,27.50
2018-05-26T08:02:41.835Z,27.40
2018-05-26T08:05:15.218Z,27.30
2018-05-26T08:07:49.464Z,26.80
2018-05-26T08:10:23.249Z,26.80
2018-05-26T08:12:56.099Z,26.60
2018-05-26T08:15:29.953Z,26.70
2018-05-26T08:18:02.857Z,26.70
2018-05-26T08:20:35.283Z,26.60
2018-05-26T08:23:09.926Z,26.50
2018-05-26T08:25:42.944Z,26.50
2018-05-26T08:28:15.538Z,26.20
2018-05-26T08:30:48.158Z,26.10
2018-05-26T08:33:21.089Z,25.90
2018-05-26T08:35:54.298Z,25.90
2018-05-26T08:38:27.710Z,25.90
2018-05-26T08:41:00.688Z,26.00
2018-05-26T08:43:33.563Z,25.90
2018-05-26T08:46:06.716Z,25.80
2018-05-26T08:48:40.076Z,25.80
2018-05-26T08:51:12.798Z,25.90
2018-05-26T08:53:45.574Z,26.20
2018-05-26T08:56:19.722Z,26.60
2018-05-26T08:58:52.780Z,26.60
2018-05-26T09:01:25.366Z,26.90
2018-05-26T09:03:58.207Z,27.10
2018-05-26T09:06:30.779Z,27.30
2018-05-26T09:09:04.478Z,27.50
2018-05-26T09:11:37.024Z,27.50
2018-05-26T09:14:10.739Z,28.10
2018-05-26T09:16:43.398Z,28.10
2018-05-26T09:19:16.958Z,28.20
2018-05-26T09:21:49.513Z,28.20
2018-05-26T09:24:22.005Z,28.20
2018-05-26T09:26:54.414Z,28.10
2018-05-26T09:29:27.280Z,28.10
2018-05-26T09:32:01.268Z,28.10
2018-05-26T09:34:34.855Z,28.10
2018-05-26T09:37:07.783Z,28.30
2018-05-26T09:39:40.555Z,28.40
2018-05-26T09:42:13.069Z,28.50
2018-05-26T09:44:46.570Z,28.40
2018-05-26T09:47:20.337Z,28.50
2018-05-26T09:49:53.013Z,28.40
2018-05-26T09:52:25.920Z,28.50
2018-05-26T09:54:59.909Z,28.60
2018-05-26T09:57:32.547Z,28.60
2018-05-26T10:00:05.493Z,28.50
2018-05-26T10:02:38.103Z,28.30
2018-05-26T10:05:12.832Z,28.10
2018-05-26T10:07:46.830Z,28.00
2018-05-26T10:10:19.603Z,27.90
2018-05-26T10:12:53.408Z,28.10
2018-05-26T10:15:26.561Z,28.00
2018-05-26T10:17:59.275Z,28.10
2018-05-26T10:20:32.682Z,28.30
2018-05-26T10:23:06.647Z,28.40
2018-05-26T10:25:39.860Z,28.40
2018-05-26T10:28:12.314Z,28.40
2018-05-26T10:30:44.926Z,28.40
2018-05-26T10:33:17.407Z,28.50
2018-05-26T10:35:50.107Z,28.50
2018-05-26T10:38:22.859Z,28.50
2018-05-26T10:40:55.487Z,28.50
2018-05-26T10:43:29.967Z,28.40
2018-05-26T10:46:21.843Z,28.40
2018-05-26T10:48:55.305Z,28.30
2018-05-26T10:51:28.943Z,28.00
2018-05-26T10:54:02.287Z,27.90
2018-05-26T10:56:36.384Z,27.70
2018-05-26T10:59:09.065Z,27.60
2018-05-26T11:01:42.356Z,27.60
2018-05-26T11:04:15.562Z,27.00
2018-05-26T11:06:48.299Z,27.00
2018-05-26T11:09:21.153Z,26.80
2018-05-26T11:11:54.533Z,26.60
2018-05-26T11:14:27.117Z,26.40
2018-05-26T11:17:00.068Z,26.20
2018-05-26T11:19:32.582Z,26.10
2018-05-26T11:22:05.254Z,26.10
2018-05-26T11:24:39.151Z,25.90
2018-05-26T11:27:11.636Z,25.80
2018-05-26T11:29:45.848Z,25.50
2018-05-26T11:32:19.455Z,25.50
2018-05-26T11:34:53.140Z,25.40
2018-05-26T11:37:26.703Z,25.40
2018-05-26T11:39:59.109Z,25.20
2018-05-26T11:42:33.761Z,25.10
2018-05-26T11:45:07.122Z,25.10
2018-05-26T11:47:39.956Z,25.00
2018-05-26T11:50:13.127Z,24.90
2018-05-26T11:52:46.113Z,24.90
2018-05-26T11:55:20.325Z,24.90
2018-05-26T11:57:53.821Z,24.80
2018-05-26T12:00:26.533Z,24.90
2018-05-26T12:03:01.250Z,24.90
2018-05-26T12:05:33.775Z,24.90
2018-05-26T12:08:06.920Z,24.90
2018-05-26T12:10:41.295Z,25.00
2018-05-26T12:13:14.958Z,25.00
2018-05-26T12:15:49.793Z,25.00
2018-05-26T12:18:22.533Z,24.90
2018-05-26T12:20:55.553Z,25.00
2018-05-26T12:23:29.198Z,25.00
2018-05-26T12:26:02.619Z,25.10
2018-05-26T12:28:36.787Z,25.20
2018-05-26T12:31:09.930Z,25.30
2018-05-26T12:33:43.447Z,25.30
2018-05-26T12:36:16.743Z,25.30
2018-05-26T12:38:49.841Z,25.30
2018-05-26T12:41:22.268Z,25.20
2018-05-26T12:43:54.969Z,25.20
2018-05-26T12:46:28.192Z,25.20
2018-05-26T12:49:01.663Z,25.20
2018-05-26T12:51:34.976Z,25.20
2018-05-26T12:54:07.999Z,25.20
2018-05-26T12:56:41.309Z,25.20
2018-05-26T12:59:14.674Z,25.20
2018-05-26T13:01:48.890Z,25.40
2018-05-26T13:04:22.446Z,25.40
2018-05-26T13:06:55.743Z,25.40
2018-05-26T13:09:29.401Z,25.40
2018-05-26T13:12:02.026Z,25.40
2018-05-26T13:14:34.819Z,25.40
2018-05-26T13:17:08.092Z,25.40
2018-05-26T13:19:40.939Z,25.40
2018-05-26T13:22:14.910Z,25.40
2018-05-26T13:24:49.241Z,25.40
2018-05-26T13:27:21.848Z,25.40
2018-05-26T13:29:55.757Z,25.50
2018-05-26T13:32:28.229Z,25.50
2018-05-26T13:35:01.250Z,25.60
2018-05-26T13:37:33.897Z,25.60
2018-05-26T13:40:07.285Z,25.70
2018-05-26T13:42:39.712Z,25.70
2018-05-26T13:45:12.601Z,25.70
2018-05-26T13:47:45.469Z,25.70
2018-05-26T13:50:19.538Z,25.60
2018-05-26T13:52:52.321Z,25.50
2018-05-26T13:55:25.442Z,25.50
2018-05-26T13:57:58.653Z,25.50
2018-05-26T14:00:32.373Z,25.30
2018-05-26T14:03:05.215Z,25.30
2018-05-26T14:05:37.863Z,25.20
2018-05-26T14:08:11.194Z,25.10
2018-05-26T14:10:44.773Z,25.00
2018-05-26T14:13:18.021Z,24.90
2018-05-26T14:15:50.861Z,24.80
2018-05-26T14:18:24.136Z,24.80
2018-05-26T14:20:56.764Z,24.70
2018-05-26T14:23:29.489Z,24.70
2018-05-26T14:26:02.194Z,24.70
2018-05-26T14:28:35.639Z,24.60
2018-05-26T14:31:08.124Z,24.60
2018-05-26T14:33:40.786Z,24.60
2018-05-26T14:36:14.572Z,24.50
2018-05-26T14:38:48.554Z,24.50
2018-05-26T14:41:22.696Z,24.50
2018-05-26T14:43:56.500Z,24.50
2018-05-26T14:46:29.748Z,24.50
2018-05-26T14:49:03.089Z,24.50
2018-05-26T14:51:36.222Z,24.50
2018-05-26T14:54:09.467Z,24.50
2018-05-26T14:56:42.848Z,24.50
2018-05-26T14:59:16.091Z,24.50
2018-05-26T15:01:49.484Z,24.50
2018-05-26T15:04:22.898Z,24.50
2018-05-26T15:06:56.351Z,24.50
2018-05-26T15:09:28.838Z,24.40
2018-05-26T15:12:02.760Z,24.40
2018-05-26T15:14:35.761Z,24.40
2018-05-26T15:17:09.414Z,24.40
2018-05-26T15:19:41.872Z,24.40
2018-05-26T15:22:14.596Z,24.40
2018-05-26T15:24:47.012Z,24.50
2018-05-26T15:27:20.675Z,24.50
2018-05-26T15:29:54.058Z,24.50
2018-05-26T15:32:26.949Z,24.40
2018-05-26T15:34:59.668Z,24.50
2018-05-26T15:37:32.044Z,24.50
2018-05-26T15:40:05.982Z,24.50
2018-05-26T15:42:39.091Z,24.50
2018-05-26T15:45:12.261Z,24.40
2018-05-26T15:47:45.722Z,24.40
2018-05-26T15:50:18.699Z,24.40
2018-05-26T15:52:51.302Z,24.40
2018-05-26T15:55:24.156Z,24.40
2018-05-26T15:57:56.916Z,24.40
2018-05-26T16:00:30.840Z,24.40
2018-05-26T16:03:04.658Z,24.30
2018-05-26T16:05:37.653Z,24.40
2018-05-26T16:08:11.213Z,24.30
2018-05-26T16:10:44.172Z,24.40
2018-05-26T16:13:17.469Z,24.30
2018-05-26T16:15:50.365Z,24.30
2018-05-26T16:18:23.486Z,24.30
2018-05-26T16:20:56.323Z,24.30
2018-05-26T16:23:30.489Z,24.30
2018-05-26T16:26:03.153Z,24.30
2018-05-26T16:28:36.532Z,24.30
2018-05-26T16:31:09.074Z,24.30
2018-05-26T16:33:41.659Z,24.30
2018-05-26T16:36:14.941Z,24.30
2018-05-26T16:38:48.463Z,24.20
2018-05-26T16:41:21.749Z,24.20
2018-05-26T16:43:54.388Z,24.10
2018-05-26T16:46:27.612Z,24.20
2018-05-26T16:49:00.369Z,24.10
2018-05-26T16:51:33.476Z,24.10
2018-05-26T16:54:06.372Z,24.20
2018-05-26T16:56:39.409Z,24.10
2018-05-26T16:59:12.183Z,24.10
2018-05-26T17:01:45.147Z,24.10
2018-05-26T17:04:18.571Z,24.00
2018-05-26T17:06:51.998Z,24.10
2018-05-26T17:09:27.100Z,23.90
2018-05-26T17:12:00.096Z,23.90
2018-05-26T17:14:33.630Z,23.90
2018-05-26T17:17:06.235Z,23.90
2018-05-26T17:19:39.883Z,23.80
2018-05-26T17:22:13.183Z,23.70
2018-05-26T17:24:46.451Z,23.70
2018-05-26T17:27:19.876Z,23.70
2018-05-26T17:29:54.241Z,23.60
2018-05-26T17:32:26.916Z,23.60
2018-05-26T17:35:00.567Z,23.60
2018-05-26T17:37:34.190Z,23.60
2018-05-26T17:40:07.163Z,23.60
2018-05-26T17:42:40.029Z,23.60
2018-05-26T17:45:14.209Z,23.60
2018-05-26T17:47:47.440Z,23.60
2018-05-26T17:50:21.506Z,23.60
2018-05-26T17:52:54.990Z,23.50
2018-05-26T17:55:27.885Z,23.50
2018-05-26T17:58:00.571Z,23.50
2018-05-26T18:00:33.942Z,23.40
2018-05-26T18:03:07.307Z,23.40
2018-05-26T18:05:40.020Z,23.30
2018-05-26T18:08:13.072Z,23.30
2018-05-26T18:10:45.611Z,23.20
2018-05-26T18:13:18.009Z,23.10
2018-05-26T18:15:50.636Z,23.00
2018-05-26T18:18:23.975Z,23.00
2018-05-26T18:20:56.505Z,22.90
2018-05-26T18:23:29.962Z,22.80
2018-05-26T18:26:03.598Z,22.80
2018-05-26T18:28:36.858Z,22.70
2018-05-26T18:31:10.471Z,22.60
2018-05-26T18:33:43.748Z,22.60
2018-05-26T18:36:16.409Z,22.60
2018-05-26T18:38:49.579Z,22.50
2018-05-26T18:41:22.876Z,22.40
2018-05-26T18:43:55.721Z,22.40
2018-05-26T18:46:28.450Z,22.40
2018-05-26T18:49:00.910Z,22.20
2018-05-26T18:51:34.337Z,22.20
2018-05-26T18:54:08.301Z,22.10
2018-05-26T18:56:41.657Z,22.10
2018-05-26T18:59:14.502Z,22.10
2018-05-26T19:01:47.837Z,22.00
2018-05-26T19:04:21.067Z,22.00
2018-05-26T19:06:54.066Z,21.90
2018-05-26T19:09:28.050Z,21.80
2018-05-26T19:12:00.810Z,21.80
2018-05-26T19:14:34.209Z,21.70
2018-05-26T19:17:06.767Z,21.60
2018-05-26T19:19:39.984Z,21.50
2018-05-26T19:22:12.996Z,21.40
2018-05-26T19:24:46.264Z,21.30
2018-05-26T19:27:18.956Z,21.20
2018-05-26T19:29:52.234Z,21.20
2018-05-26T19:32:25.617Z,21.00
2018-05-26T19:34:58.942Z,20.90
2018-05-26T19:37:31.819Z,20.90
2018-05-26T19:40:04.971Z,20.80
2018-05-26T19:42:38.406Z,20.60
2018-05-26T19:45:11.113Z,20.60
2018-05-26T19:47:43.544Z,20.50
2018-05-26T19:50:17.018Z,20.40
2018-05-26T19:52:50.686Z,20.30
2018-05-26T19:55:23.150Z,20.30
2018-05-26T19:57:55.693Z,20.20
2018-05-26T20:00:28.306Z,20.20
2018-05-26T20:03:01.481Z,20.10
2018-05-26T20:05:35.399Z,20.00
2018-05-26T20:08:08.685Z,19.90
2018-05-26T20:10:41.616Z,19.90
2018-05-26T20:13:14.726Z,19.80
2018-05-26T20:15:48.510Z,19.70
2018-05-26T20:18:21.676Z,19.70
2018-05-26T20:20:55.601Z,19.60
2018-05-26T20:23:28.481Z,19.50
2018-05-26T20:26:01.594Z,19.50
2018-05-26T20:28:34.335Z,19.40
2018-05-26T20:31:07.623Z,19.40
2018-05-26T20:33:40.420Z,19.30
2018-05-26T20:36:13.611Z,19.30
2018-05-26T20:38:46.246Z,19.20
2018-05-26T20:41:19.712Z,19.20
2018-05-26T20:43:52.362Z,19.10
2018-05-26T20:46:24.844Z,19.00
2018-05-26T20:48:58.837Z,19.00
2018-05-26T20:51:31.711Z,18.90
2018-05-26T20:54:04.550Z,18.90
2018-05-26T20:56:37.296Z,18.90
2018-05-26T20:59:09.995Z,18.80
2018-05-26T21:01:43.309Z,18.80
2018-05-26T21:04:16.899Z,18.70
2018-05-26T21:06:50.146Z,18.70
2018-05-26T21:09:23.269Z,18.60
2018-05-26T21:11:56.647Z,18.60
2018-05-26T21:14:29.421Z,18.50
2018-05-26T21:17:02.620Z,18.50
2018-05-26T21:19:36.141Z,18.40
2018-05-26T21:22:08.941Z,18.40
2018-05-26T21:24:41.445Z,18.30
2018-05-26T21:27:13.919Z,18.30
2018-05-26T21:29:46.919Z,18.30
2018-05-26T21:32:19.850Z,18.20
2018-05-26T21:34:52.261Z,18.20
2018-05-26T21:37:25.439Z,18.10
2018-05-26T21:39:57.850Z,18.10
2018-05-26T21:42:30.401Z,18.10
2018-05-26T21:45:03.054Z,18.10
2018-05-26T21:47:36.640Z,18.00
2018-05-26T21:50:10.046Z,18.00
2018-05-26T21:52:54.002Z,18.00
2018-05-26T21:55:26.626Z,18.00
2018-05-26T21:57:59.633Z,17.90
2018-05-26T22:00:32.472Z,17.90
2018-05-26T22:03:04.946Z,17.90
2018-05-26T22:05:38.748Z,17.80
2018-05-26T22:08:11.481Z,17.80
2018-05-26T22:10:44.603Z,17.80
2018-05-26T22:13:17.267Z,17.80
2018-05-26T22:15:50.885Z,17.70
2018-05-26T22:18:23.556Z,17.70
2018-05-26T22:20:56.575Z,17.70
2018-05-26T22:23:29.778Z,17.60
2018-05-26T22:26:02.443Z,17.60
2018-05-26T22:28:35.803Z,17.60
2018-05-26T22:31:08.671Z,17.50
2018-05-26T22:33:42.029Z,17.50
2018-05-26T22:36:14.548Z,17.50
2018-05-26T22:38:47.032Z,17.40
2018-05-26T22:41:21.388Z,17.40
2018-05-26T22:43:55.390Z,17.30
2018-05-26T22:46:28.358Z,17.30
2018-05-26T22:49:01.450Z,17.30
2018-05-26T22:51:34.117Z,17.20
2018-05-26T22:54:07.336Z,17.20
2018-05-26T22:56:39.829Z,17.20
2018-05-26T22:59:12.457Z,17.20
2018-05-26T23:01:45.064Z,17.10
2018-05-26T23:04:17.603Z,17.10
2018-05-26T23:06:52.030Z,17.00
2018-05-26T23:09:24.772Z,17.00
2018-05-26T23:11:58.149Z,17.00
2018-05-26T23:14:30.551Z,17.00
2018-05-26T23:17:03.524Z,16.90
2018-05-26T23:19:36.028Z,16.90
2018-05-26T23:22:09.964Z,16.90
2018-05-26T23:24:43.098Z,16.80
2018-05-26T23:27:15.918Z,16.80
2018-05-26T23:29:48.577Z,16.70
2018-05-26T23:32:21.323Z,16.70
2018-05-26T23:34:54.048Z,16.70
2018-05-26T23:37:26.903Z,16.60
2018-05-26T23:40:00.229Z,16.60
2018-05-26T23:42:32.795Z,16.60
2018-05-26T23:45:06.129Z,16.60
2018-05-26T23:47:38.677Z,16.50
2018-05-26T23:50:10.999Z,16.50
2018-05-26T23:52:43.489Z,16.50
2018-05-26T23:55:16.702Z,16.50
2018-05-26T23:57:49.482Z,16.50
